KQA351 HKJK-HRYR
Flight info
| Callsign | KQA351 |
|---|---|
| Flight time | N/A |
| Altitude | 34000 |
| Route | APLOG2B/06 APLOG UL442 BOSAD BOSAD2A |
| Aircraft | B738/M-SDE2E3FGHIRWXY/LB1 |
Departure
| Time | N/A |
|---|---|
| Airport | Jomo Kenyatta International Airport (HKJK) |
Arrival
| Time | 2026-04-26 14:13 |
|---|---|
| Airport | Kigali International Airport (HRYR) |
| Time | Latitude | Longitude | Altitude | Speed | Heading |
|---|---|---|---|---|---|
| 2026-04-26 13:19 | -1.36062 | 35.97382 | 26003 ft | 437 kts | 263° |
| 2026-04-26 13:19 | -1.36469 | 35.94361 | 26323 ft | 439 kts | 263° |
| 2026-04-26 13:19 | -1.36876 | 35.91341 | 26750 ft | 438 kts | 263° |
| 2026-04-26 13:19 | -1.37280 | 35.88339 | 27266 ft | 435 kts | 263° |
| 2026-04-26 13:20 | -1.37682 | 35.85349 | 27711 ft | 434 kts | 263° |
| 2026-04-26 13:20 | -1.38085 | 35.82352 | 28116 ft | 434 kts | 263° |
| 2026-04-26 13:20 | -1.38486 | 35.79375 | 28605 ft | 432 kts | 263° |
| 2026-04-26 13:20 | -1.38885 | 35.76405 | 29096 ft | 430 kts | 263° |
| 2026-04-26 13:21 | -1.39283 | 35.73446 | 29470 ft | 431 kts | 264° |
| 2026-04-26 13:21 | -1.39684 | 35.70463 | 29818 ft | 432 kts | 264° |
| 2026-04-26 13:21 | -1.40080 | 35.67509 | 30385 ft | 427 kts | 263° |
| 2026-04-26 13:21 | -1.40475 | 35.64572 | 30754 ft | 427 kts | 263° |
| 2026-04-26 13:22 | -1.40867 | 35.61658 | 30968 ft | 430 kts | 264° |
| 2026-04-26 13:22 | -1.41265 | 35.58691 | 31205 ft | 433 kts | 264° |
| 2026-04-26 13:22 | -1.41667 | 35.55697 | 31530 ft | 433 kts | 264° |
| 2026-04-26 13:22 | -1.42068 | 35.52714 | 31764 ft | 435 kts | 264° |
| 2026-04-26 13:23 | -1.42473 | 35.49698 | 31950 ft | 439 kts | 263° |
| 2026-04-26 13:23 | -1.42877 | 35.46688 | 32346 ft | 437 kts | 263° |
| 2026-04-26 13:23 | -1.43281 | 35.43677 | 32674 ft | 436 kts | 263° |
| 2026-04-26 13:23 | -1.43686 | 35.40665 | 32860 ft | 440 kts | 263° |
| 2026-04-26 13:24 | -1.44094 | 35.37626 | 33040 ft | 443 kts | 263° |
| 2026-04-26 13:24 | -1.44504 | 35.34570 | 33252 ft | 445 kts | 263° |
| 2026-04-26 13:25 | -1.45726 | 35.25463 | 33929 ft | 450 kts | 263° |
| 2026-04-26 13:25 | -1.46137 | 35.22403 | 34044 ft | 450 kts | 263° |
| 2026-04-26 13:25 | -1.46554 | 35.19292 | 34041 ft | 455 kts | 263° |
| 2026-04-26 13:26 | -1.47403 | 35.12967 | 34025 ft | 460 kts | 263° |
| 2026-04-26 13:26 | -1.48246 | 35.06679 | 34023 ft | 452 kts | 263° |
| 2026-04-26 13:27 | -1.49080 | 35.00457 | 34026 ft | 452 kts | 263° |
| 2026-04-26 13:27 | -1.49915 | 34.94231 | 34021 ft | 453 kts | 263° |
| 2026-04-26 13:28 | -1.50675 | 34.88019 | 34010 ft | 454 kts | 265° |
| 2026-04-26 13:28 | -1.51261 | 34.81736 | 34002 ft | 455 kts | 265° |
| 2026-04-26 13:29 | -1.51852 | 34.75435 | 34001 ft | 456 kts | 265° |
| 2026-04-26 13:29 | -1.52471 | 34.69115 | 33984 ft | 458 kts | 265° |
| 2026-04-26 13:30 | -1.53096 | 34.62816 | 33982 ft | 459 kts | 265° |
| 2026-04-26 13:30 | -1.53724 | 34.56462 | 33981 ft | 460 kts | 265° |
| 2026-04-26 13:31 | -1.54355 | 34.50090 | 33986 ft | 461 kts | 265° |
| 2026-04-26 13:31 | -1.54989 | 34.43700 | 33972 ft | 462 kts | 265° |
| 2026-04-26 13:32 | -1.55623 | 34.37306 | 33971 ft | 462 kts | 265° |
| 2026-04-26 13:32 | -1.56252 | 34.30954 | 33976 ft | 462 kts | 265° |
| 2026-04-26 13:33 | -1.56884 | 34.24571 | 33973 ft | 461 kts | 265° |
| 2026-04-26 13:33 | -1.57527 | 34.18210 | 33966 ft | 460 kts | 265° |
| 2026-04-26 13:34 | -1.58177 | 34.11862 | 33985 ft | 458 kts | 265° |
| 2026-04-26 13:34 | -1.58817 | 34.05585 | 34003 ft | 457 kts | 265° |
| 2026-04-26 13:35 | -1.59452 | 33.99277 | 34025 ft | 456 kts | 265° |
| 2026-04-26 13:35 | -1.60067 | 33.92977 | 34044 ft | 455 kts | 265° |
| 2026-04-26 13:36 | -1.60678 | 33.86688 | 34066 ft | 454 kts | 265° |
| 2026-04-26 13:36 | -1.61292 | 33.80399 | 34068 ft | 455 kts | 265° |
| 2026-04-26 13:37 | -1.61903 | 33.74153 | 33984 ft | 455 kts | 265° |
| 2026-04-26 13:37 | -1.62518 | 33.67855 | 33984 ft | 456 kts | 265° |
| 2026-04-26 13:38 | -1.63134 | 33.61550 | 33985 ft | 456 kts | 265° |
| 2026-04-26 13:38 | -1.63751 | 33.55228 | 33984 ft | 457 kts | 265° |
| 2026-04-26 13:39 | -1.64362 | 33.48954 | 33983 ft | 457 kts | 265° |
| 2026-04-26 13:39 | -1.64974 | 33.42630 | 33986 ft | 457 kts | 265° |
| 2026-04-26 13:40 | -1.65586 | 33.36309 | 33986 ft | 457 kts | 265° |
| 2026-04-26 13:40 | -1.66198 | 33.29975 | 33998 ft | 457 kts | 265° |
| 2026-04-26 13:41 | -1.66806 | 33.23699 | 34002 ft | 457 kts | 265° |
| 2026-04-26 13:41 | -1.67415 | 33.17397 | 33999 ft | 457 kts | 265° |
| 2026-04-26 13:42 | -1.68027 | 33.11071 | 34003 ft | 457 kts | 265° |
| 2026-04-26 13:42 | -1.68638 | 33.04749 | 34004 ft | 456 kts | 265° |
| 2026-04-26 13:43 | -1.69248 | 32.98434 | 34005 ft | 456 kts | 265° |
| 2026-04-26 13:43 | -1.69857 | 32.92133 | 34003 ft | 455 kts | 265° |
| 2026-04-26 13:44 | -1.70465 | 32.85833 | 34000 ft | 455 kts | 265° |
| 2026-04-26 13:44 | -1.71073 | 32.79536 | 33996 ft | 455 kts | 265° |
| 2026-04-26 13:45 | -1.71681 | 32.73233 | 34000 ft | 455 kts | 265° |
| 2026-04-26 13:45 | -1.72288 | 32.66934 | 33989 ft | 455 kts | 265° |
| 2026-04-26 13:46 | -1.72901 | 32.60639 | 33976 ft | 456 kts | 265° |
| 2026-04-26 13:46 | -1.73529 | 32.54373 | 33979 ft | 456 kts | 265° |
| 2026-04-26 13:47 | -1.74163 | 32.48069 | 33970 ft | 456 kts | 265° |
| 2026-04-26 13:47 | -1.74796 | 32.41759 | 33970 ft | 456 kts | 265° |
| 2026-04-26 13:48 | -1.75428 | 32.35449 | 33961 ft | 456 kts | 265° |
| 2026-04-26 13:48 | -1.76058 | 32.29141 | 33952 ft | 456 kts | 265° |
| 2026-04-26 13:49 | -1.76683 | 32.22897 | 33925 ft | 441 kts | 265° |
| 2026-04-26 13:49 | -1.76986 | 32.19871 | 33605 ft | 435 kts | 265° |
| 2026-04-26 13:49 | -1.77284 | 32.16885 | 33334 ft | 428 kts | 265° |
| 2026-04-26 13:49 | -1.77579 | 32.13937 | 32939 ft | 426 kts | 265° |
| 2026-04-26 13:50 | -1.77868 | 32.11040 | 32588 ft | 422 kts | 265° |
| 2026-04-26 13:50 | -1.78161 | 32.08093 | 32214 ft | 419 kts | 265° |
| 2026-04-26 13:50 | -1.78446 | 32.05236 | 31861 ft | 417 kts | 265° |
| 2026-04-26 13:50 | -1.78733 | 32.02365 | 31498 ft | 415 kts | 265° |
| 2026-04-26 13:51 | -1.79018 | 31.99500 | 31132 ft | 413 kts | 265° |
| 2026-04-26 13:51 | -1.79303 | 31.96648 | 30769 ft | 411 kts | 265° |
| 2026-04-26 13:51 | -1.79585 | 31.93813 | 30395 ft | 409 kts | 265° |
| 2026-04-26 13:51 | -1.79867 | 31.90986 | 30043 ft | 408 kts | 265° |
| 2026-04-26 13:52 | -1.80148 | 31.88169 | 29608 ft | 406 kts | 265° |
| 2026-04-26 13:52 | -1.80427 | 31.85367 | 29233 ft | 403 kts | 265° |
| 2026-04-26 13:52 | -1.80704 | 31.82593 | 28841 ft | 400 kts | 265° |
| 2026-04-26 13:52 | -1.80979 | 31.79833 | 28463 ft | 397 kts | 265° |
| 2026-04-26 13:53 | -1.81252 | 31.77099 | 28091 ft | 394 kts | 265° |
| 2026-04-26 13:53 | -1.81522 | 31.74382 | 27722 ft | 392 kts | 265° |
| 2026-04-26 13:53 | -1.81791 | 31.71682 | 27367 ft | 389 kts | 265° |
| 2026-04-26 13:53 | -1.82055 | 31.69030 | 26991 ft | 387 kts | 265° |
| 2026-04-26 13:54 | -1.82321 | 31.66360 | 26629 ft | 385 kts | 265° |
| 2026-04-26 13:54 | -1.82586 | 31.63705 | 26260 ft | 383 kts | 265° |
| 2026-04-26 13:54 | -1.82849 | 31.61057 | 25924 ft | 381 kts | 265° |
| 2026-04-26 13:55 | -1.83372 | 31.55800 | 25202 ft | 378 kts | 265° |
| 2026-04-26 13:55 | -1.83545 | 31.54070 | 24953 ft | 378 kts | 265° |
| 2026-04-26 13:55 | -1.84150 | 31.47977 | 24114 ft | 376 kts | 264° |
| 2026-04-26 13:56 | -1.84408 | 31.45389 | 23755 ft | 375 kts | 264° |
| 2026-04-26 13:56 | -1.84666 | 31.42795 | 23351 ft | 374 kts | 264° |
| 2026-04-26 13:56 | -1.84922 | 31.40218 | 22988 ft | 371 kts | 264° |
| 2026-04-26 13:56 | -1.85177 | 31.37651 | 22618 ft | 369 kts | 264° |
| 2026-04-26 13:57 | -1.85430 | 31.35110 | 22259 ft | 367 kts | 264° |
| 2026-04-26 13:57 | -1.85678 | 31.32614 | 21917 ft | 364 kts | 264° |
| 2026-04-26 13:57 | -1.85927 | 31.30104 | 21566 ft | 362 kts | 264° |
| 2026-04-26 13:57 | -1.86175 | 31.27611 | 21233 ft | 360 kts | 264° |
| 2026-04-26 13:58 | -1.86421 | 31.25129 | 20886 ft | 357 kts | 264° |
| 2026-04-26 13:58 | -1.86666 | 31.22665 | 20547 ft | 355 kts | 263° |
| 2026-04-26 13:58 | -1.86910 | 31.20209 | 20207 ft | 354 kts | 263° |
| 2026-04-26 13:58 | -1.87152 | 31.17771 | 19884 ft | 352 kts | 263° |
| 2026-04-26 13:59 | -1.87393 | 31.15339 | 19539 ft | 351 kts | 263° |
| 2026-04-26 13:59 | -1.87634 | 31.12919 | 19199 ft | 349 kts | 263° |
| 2026-04-26 13:59 | -1.87873 | 31.10506 | 18855 ft | 348 kts | 263° |
| 2026-04-26 14:00 | -1.88587 | 31.03317 | 17798 ft | 344 kts | 263° |
| 2026-04-26 14:00 | -1.88823 | 31.00940 | 17455 ft | 342 kts | 263° |
| 2026-04-26 14:00 | -1.88978 | 30.99376 | 17228 ft | 340 kts | 263° |
| 2026-04-26 14:01 | -1.89289 | 30.96241 | 16809 ft | 337 kts | 263° |
| 2026-04-26 14:01 | -1.89519 | 30.93916 | 16462 ft | 336 kts | 264° |
| 2026-04-26 14:01 | -1.89749 | 30.91599 | 16142 ft | 334 kts | 264° |
| 2026-04-26 14:01 | -1.89977 | 30.89296 | 15807 ft | 333 kts | 264° |
| 2026-04-26 14:02 | -1.90205 | 30.86994 | 15483 ft | 331 kts | 263° |
| 2026-04-26 14:02 | -1.90432 | 30.84713 | 15147 ft | 330 kts | 264° |
| 2026-04-26 14:02 | -1.90659 | 30.82435 | 14830 ft | 328 kts | 263° |
| 2026-04-26 14:02 | -1.91049 | 30.80192 | 14501 ft | 327 kts | 255° |
| 2026-04-26 14:03 | -1.91675 | 30.78022 | 14206 ft | 325 kts | 252° |
| 2026-04-26 14:03 | -1.92353 | 30.75866 | 13874 ft | 325 kts | 252° |
| 2026-04-26 14:03 | -1.93030 | 30.73707 | 13514 ft | 324 kts | 252° |
| 2026-04-26 14:03 | -1.93690 | 30.71560 | 13192 ft | 323 kts | 252° |
| 2026-04-26 14:04 | -1.94333 | 30.69425 | 12866 ft | 321 kts | 252° |
| 2026-04-26 14:04 | -1.94968 | 30.67286 | 12544 ft | 319 kts | 252° |
| 2026-04-26 14:04 | -1.95590 | 30.65170 | 12229 ft | 317 kts | 252° |
| 2026-04-26 14:04 | -1.96200 | 30.63083 | 11912 ft | 316 kts | 253° |
| 2026-04-26 14:05 | -1.96812 | 30.60985 | 11622 ft | 314 kts | 252° |
| 2026-04-26 14:05 | -1.97421 | 30.58891 | 11297 ft | 312 kts | 252° |
| 2026-04-26 14:05 | -1.98026 | 30.56810 | 10989 ft | 311 kts | 252° |
| 2026-04-26 14:05 | -1.98629 | 30.54734 | 10680 ft | 310 kts | 252° |
| 2026-04-26 14:06 | -1.99229 | 30.52669 | 10372 ft | 309 kts | 252° |
| 2026-04-26 14:06 | -1.99822 | 30.50631 | 10231 ft | 301 kts | 252° |
| 2026-04-26 14:06 | -2.00398 | 30.48646 | 10079 ft | 294 kts | 252° |
| 2026-04-26 14:06 | -2.00968 | 30.46679 | 9797 ft | 293 kts | 253° |
| 2026-04-26 14:07 | -2.01527 | 30.44744 | 9632 ft | 287 kts | 252° |
| 2026-04-26 14:07 | -2.01964 | 30.42822 | 9474 ft | 282 kts | 266° |
| 2026-04-26 14:07 | -2.01644 | 30.40914 | 9342 ft | 272 kts | 286° |
| 2026-04-26 14:07 | -2.01211 | 30.39158 | 9343 ft | 247 kts | 278° |
| 2026-04-26 14:08 | -2.00961 | 30.37529 | 9124 ft | 237 kts | 277° |
| 2026-04-26 14:08 | -2.00708 | 30.35944 | 8880 ft | 226 kts | 278° |
| 2026-04-26 14:08 | -2.00457 | 30.34465 | 8617 ft | 206 kts | 278° |
| 2026-04-26 14:08 | -2.00221 | 30.33106 | 8310 ft | 189 kts | 278° |
| 2026-04-26 14:09 | -2.00003 | 30.31867 | 8092 ft | 174 kts | 278° |
| 2026-04-26 14:09 | -1.99798 | 30.30692 | 7863 ft | 171 kts | 278° |
| 2026-04-26 14:09 | -1.99593 | 30.29522 | 7651 ft | 171 kts | 277° |
| 2026-04-26 14:09 | -1.99389 | 30.28363 | 7431 ft | 167 kts | 278° |
| 2026-04-26 14:10 | -1.99189 | 30.27220 | 7207 ft | 167 kts | 278° |
| 2026-04-26 14:10 | -1.98989 | 30.26075 | 6987 ft | 169 kts | 278° |
| 2026-04-26 14:10 | -1.98787 | 30.24920 | 6777 ft | 167 kts | 278° |
| 2026-04-26 14:10 | -1.98585 | 30.23778 | 6526 ft | 166 kts | 277° |
| 2026-04-26 14:11 | -1.98198 | 30.21562 | 6111 ft | 161 kts | 278° |
| 2026-04-26 14:11 | -1.98001 | 30.20438 | 5916 ft | 167 kts | 278° |
| 2026-04-26 14:11 | -1.97802 | 30.19306 | 5625 ft | 161 kts | 279° |
| 2026-04-26 14:12 | -1.97614 | 30.18236 | 5407 ft | 150 kts | 279° |
| 2026-04-26 14:12 | -1.97438 | 30.17222 | 5264 ft | 149 kts | 279° |
| 2026-04-26 14:12 | -1.97258 | 30.16212 | 5047 ft | 145 kts | 281° |
| 2026-04-26 14:12 | -1.97095 | 30.15230 | 4920 ft | 144 kts | 281° |
| 2026-04-26 14:13 | -1.96768 | 30.13386 | 4899 ft | 100 kts | 278° |
| 2026-04-26 14:13 | -1.96701 | 30.13000 | 4897 ft | 32 kts | 287° |
| 2026-04-26 14:13 | -1.96610 | 30.12968 | 4899 ft | 13 kts | 52° |
| 2026-04-26 14:14 | -1.96560 | 30.13042 | 4897 ft | 13 kts | 66° |
| 2026-04-26 14:14 | -1.96553 | 30.13129 | 4899 ft | 12 kts | 95° |
| 2026-04-26 14:14 | -1.96569 | 30.13212 | 4902 ft | 12 kts | 100° |
| 2026-04-26 14:14 | -1.96583 | 30.13294 | 4902 ft | 12 kts | 99° |
| 2026-04-26 14:15 | -1.96593 | 30.13375 | 4902 ft | 11 kts | 94° |
| 2026-04-26 14:15 | -1.96594 | 30.13453 | 4902 ft | 11 kts | 82° |
| 2026-04-26 14:15 | -1.96547 | 30.13493 | 4901 ft | 9 kts | 342° |
| 2026-04-26 14:15 | -1.96517 | 30.13441 | 4895 ft | 9 kts | 289° |
| 2026-04-26 14:16 | -1.96507 | 30.13413 | 4896 ft | 0 kts | 289° |